Tonopah Airport Tonopah US
ICAO: KTPH
IATA: TPH
Category: Medium
Scheduled Services: No

Elevation: 5430 ft
TransAlt. 18000 ft.

Airport Communications:
ASOS:118.875
SALT LAKE CNTR:133.45
RENO RDO:122.6
CTAF/UNICOM:123

KTPH Zoom In..

Runways:

(A) RW 11 length 6195 ft width 50 ft
---- / hdg 110

(B) RW 15 length 7158 ft width 80 ft
---- / hdg 150

(C) RW 29 length 6195 ft width 50 ft
---- / hdg 290

(D) RW 33 length 7158 ft width 80 ft
---- / hdg 330

Location; KTPH
Day. 05 / Time. 13.56 Zulu
* Altimeter: 29.93
* Temperature: 17° c. 62.6°f.
* Wind from: KTP° Speed H kn.
Dewpoint: -03° c.
Visibility: 10 Statute Miles.
Clouds: Clear (automated report).

KTPH 051356Z AUTO 01008KT 10SM CLR 17/M03 A2993 RMK AO2 SLP050 T01671028


Wind From KTP°
Speed H kn.

 
 
jpsmedia worldairports.se 2020   terms of use